Time;durP1;ratioP1;P1;durP2;ratioP2;P2;SDS_P1;SDS_P2;PMS_P1;PMS_P2;Temp;Humidity;BMP_temperature;BMP_pressure;BME280_temperature;BME280_humidity;BME280_pressure;Samples;Min_cycle;Max_cycle;Signal;HPM_P1;HPM_P2
2021/06/12 00:02:26;;;;;;;2.13;1.58;;;24.50;58.00;;;;;;5050719;28;20056;-56
2021/06/12 00:04:54;;;;;;;1.58;1.48;;;24.60;58.10;;;;;;5037486;28;20127;-55
2021/06/12 00:07:21;;;;;;;1.70;1.45;;;24.50;58.00;;;;;;5040528;28;20055;-52
2021/06/12 00:09:49;;;;;;;2.08;1.75;;;24.60;58.10;;;;;;5036189;28;20049;-55
2021/06/12 00:12:17;;;;;;;1.70;1.60;;;24.50;58.10;;;;;;5068271;28;20049;-50
2021/06/12 00:14:45;;;;;;;1.58;1.48;;;24.50;58.10;;;;;;5052316;28;20132;-55
2021/06/12 00:17:12;;;;;;;1.50;1.40;;;24.50;58.10;;;;;;5050639;28;20045;-58
2021/06/12 00:19:40;;;;;;;1.70;1.60;;;24.50;58.10;;;;;;5052126;28;20456;-55
2021/06/12 00:22:07;;;;;;;1.65;1.55;;;24.50;58.10;;;;;;5053114;28;20079;-55
2021/06/12 00:24:35;;;;;;;1.80;1.70;;;24.50;58.10;;;;;;5066913;28;20045;-55
2021/06/12 00:27:02;;;;;;;1.35;1.25;;;24.50;58.10;;;;;;5052958;28;20094;-55
2021/06/12 00:29:30;;;;;;;1.63;1.52;;;24.50;58.10;;;;;;5051544;28;20052;-55
2021/06/12 00:31:57;;;;;;;1.75;1.50;;;24.50;58.10;;;;;;5050702;28;20045;-56
2021/06/12 00:34:25;;;;;;;1.73;1.63;;;24.50;58.20;;;;;;5050437;28;20049;-55
2021/06/12 00:36:52;;;;;;;1.60;1.50;;;24.50;58.20;;;;;;5051666;28;20049;-55
2021/06/12 00:39:20;;;;;;;1.38;1.27;;;24.50;58.20;;;;;;5052495;28;20051;-54
2021/06/12 00:41:48;;;;;;;1.98;1.73;;;24.50;58.20;;;;;;5046980;28;20053;-55
2021/06/12 00:44:15;;;;;;;1.65;1.30;;;24.50;58.20;;;;;;5047008;28;20041;-56
2021/06/12 00:46:43;;;;;;;1.60;1.50;;;24.50;58.20;;;;;;5055917;28;20052;-54
2021/06/12 00:49:10;;;;;;;1.38;1.27;;;24.50;58.20;;;;;;5055409;28;20048;-56
2021/06/12 00:51:38;;;;;;;1.60;1.50;;;24.50;58.20;;;;;;5050067;28;20053;-53
2021/06/12 00:54:05;;;;;;;1.63;1.52;;;24.50;58.20;;;;;;5044257;28;20049;-56
2021/06/12 00:56:33;;;;;;;1.90;1.73;;;24.50;58.20;;;;;;5055372;28;20497;-53
2021/06/12 00:59:00;;;;;;;1.92;1.80;;;24.50;58.20;;;;;;5052647;28;20052;-53
2021/06/12 01:01:48;;;;;;;1.63;1.52;;;24.50;58.20;;;;;;5044282;28;20163;-54
2021/06/12 01:04:16;;;;;;;1.52;1.42;;;24.50;58.20;;;;;;5053013;28;20489;-54
2021/06/12 01:06:49;;;;;;;1.63;1.52;;;24.50;58.20;;;;;;5046203;28;20506;-54
2021/06/12 01:09:23;;;;;;;1.80;1.70;;;24.50;58.20;;;;;;5057196;28;20056;-51
2021/06/12 01:12:11;;;;;;;1.75;1.65;;;24.50;58.20;;;;;;5055063;28;20140;-54
2021/06/12 01:14:43;;;;;;;1.55;1.42;;;24.50;58.20;;;;;;5055378;28;20052;-52
2021/06/12 01:17:42;;;;;;;1.63;1.45;;;24.50;58.20;;;;;;5053854;28;20052;-55
2021/06/12 01:20:31;;;;;;;1.00;0.90;;;24.50;58.20;;;;;;5030765;28;20052;-54
2021/06/12 01:23:10;;;;;;;1.60;1.50;;;24.50;58.20;;;;;;5055964;28;20049;-50
2021/06/12 01:26:09;;;;;;;1.45;1.35;;;24.50;58.20;;;;;;5054967;28;20055;-56
2021/06/12 01:29:09;;;;;;;1.85;1.70;;;24.50;58.90;;;;;;4988260;28;20053;-51
2021/06/12 01:31:38;;;;;;;1.70;1.40;;;24.50;58.30;;;;;;4975103;28;20414;-55
2021/06/12 01:34:07;;;;;;;1.65;1.55;;;24.50;58.30;;;;;;4975307;28;20153;-51
2021/06/12 01:36:35;;;;;;;1.35;1.25;;;24.50;58.30;;;;;;4973802;28;20459;-53
2021/06/12 01:39:04;;;;;;;1.60;1.50;;;24.50;58.30;;;;;;4974581;28;20054;-54
2021/06/12 01:41:33;;;;;;;1.52;1.42;;;24.50;58.30;;;;;;4959800;28;20070;-53
2021/06/12 01:44:02;;;;;;;1.35;1.25;;;24.50;58.30;;;;;;4941968;28;20064;-54
2021/06/12 01:46:30;;;;;;;1.70;1.55;;;24.50;58.30;;;;;;4958745;28;20055;-54
2021/06/12 01:49:00;;;;;;;1.70;1.60;;;24.50;58.30;;;;;;4970579;28;20059;-55
2021/06/12 01:51:28;;;;;;;1.60;1.50;;;24.50;58.30;;;;;;4963868;28;20153;-55
2021/06/12 01:53:59;;;;;;;1.60;1.50;;;24.50;58.30;;;;;;4958504;28;20239;-54
2021/06/12 01:56:27;;;;;;;1.60;1.50;;;24.50;58.30;;;;;;4960007;28;20043;-54
2021/06/12 01:58:55;;;;;;;2.08;1.70;;;24.50;58.40;;;;;;4959508;28;20055;-52
2021/06/12 02:01:25;;;;;;;1.90;1.70;;;24.50;58.30;;;;;;4976483;28;20046;-52
2021/06/12 02:03:54;;;;;;;1.75;1.50;;;24.50;58.40;;;;;;4991451;28;20507;-50
2021/06/12 02:06:23;;;;;;;1.50;1.40;;;24.50;58.40;;;;;;5040422;28;20481;-52
2021/06/12 02:08:51;;;;;;;1.40;1.30;;;24.50;58.40;;;;;;5054899;28;20080;-55
2021/06/12 02:11:20;;;;;;;1.60;1.50;;;24.50;58.40;;;;;;5055420;28;20045;-55
2021/06/12 02:13:49;;;;;;;1.67;1.50;;;24.50;58.40;;;;;;5054228;28;20052;-53
2021/06/12 02:16:20;;;;;;;1.40;1.30;;;24.50;58.40;;;;;;5054175;28;20099;-53
2021/06/12 02:18:50;;;;;;;2.00;1.80;;;24.50;58.40;;;;;;5048359;28;20060;-52
2021/06/12 02:21:22;;;;;;;1.33;1.23;;;24.50;58.40;;;;;;5041288;28;20505;-55
2021/06/12 02:23:50;;;;;;;1.75;1.58;;;24.50;58.40;;;;;;5053808;28;20056;-55
2021/06/12 02:26:21;;;;;;;1.40;1.30;;;24.50;58.40;;;;;;5053533;28;20571;-55
2021/06/12 02:28:50;;;;;;;1.52;1.42;;;24.50;58.40;;;;;;5051266;28;20045;-54
2021/06/12 02:31:25;;;;;;;1.70;1.60;;;24.50;58.40;;;;;;5037586;28;20049;-54
2021/06/12 02:33:53;;;;;;;1.50;1.40;;;24.50;58.40;;;;;;5037675;28;20041;-55
2021/06/12 02:36:21;;;;;;;2.45;1.55;;;24.40;58.30;;;;;;5053831;28;20045;-55
2021/06/12 02:38:49;;;;;;;1.63;1.52;;;24.50;58.40;;;;;;5053373;28;20051;-56
2021/06/12 02:41:17;;;;;;;1.63;1.52;;;24.50;58.40;;;;;;5053947;28;25023;-56
2021/06/12 02:43:44;;;;;;;1.33;1.23;;;24.50;58.40;;;;;;5054058;28;20075;-56
2021/06/12 02:46:18;;;;;;;1.30;1.20;;;24.40;58.30;;;;;;5068883;28;20052;-56
2021/06/12 02:48:51;;;;;;;1.67;1.58;;;24.40;58.30;;;;;;5053093;28;20045;-55
2021/06/12 02:51:20;;;;;;;1.80;1.70;;;24.50;58.40;;;;;;5036789;28;20068;-55
2021/06/12 02:53:50;;;;;;;1.55;1.45;;;24.40;58.30;;;;;;5051826;28;20292;-57
2021/06/12 02:56:20;;;;;;;1.38;1.27;;;24.50;58.40;;;;;;5054814;28;20068;-56
2021/06/12 02:58:49;;;;;;;1.35;1.20;;;24.40;58.40;;;;;;5037554;28;20092;-51
2021/06/12 03:01:17;;;;;;;1.33;1.23;;;24.40;58.30;;;;;;5052578;28;20049;-54
2021/06/12 03:03:46;;;;;;;1.70;1.50;;;24.50;58.40;;;;;;5052801;28;20045;-55
2021/06/12 03:06:17;;;;;;;1.70;1.50;;;24.50;58.40;;;;;;5052263;28;20048;-54
2021/06/12 03:08:49;;;;;;;1.67;1.58;;;24.40;58.30;;;;;;5051687;28;20041;-57
2021/06/12 03:11:18;;;;;;;1.92;1.50;;;24.50;58.40;;;;;;5052136;28;20060;-53
2021/06/12 03:13:47;;;;;;;1.70;1.60;;;24.50;58.40;;;;;;5041095;28;20073;-54
2021/06/12 03:16:16;;;;;;;1.60;1.50;;;24.40;58.40;;;;;;5048794;28;20056;-56
2021/06/12 03:18:47;;;;;;;1.60;1.50;;;24.40;58.30;;;;;;5052707;28;20055;-56
2021/06/12 03:21:22;;;;;;;1.50;1.40;;;24.40;58.30;;;;;;5054908;28;20057;-56
2021/06/12 03:23:51;;;;;;;1.58;1.48;;;24.50;58.40;;;;;;5051631;28;20118;-56
2021/06/12 03:26:20;;;;;;;1.55;1.40;;;24.40;58.30;;;;;;5052507;28;20049;-56
2021/06/12 03:28:48;;;;;;;1.40;1.30;;;24.50;58.40;;;;;;5042221;28;20045;-55
2021/06/12 03:31:17;;;;;;;1.42;1.33;;;24.50;58.40;;;;;;5045523;28;20037;-54
2021/06/12 03:33:45;;;;;;;1.70;1.60;;;24.50;58.40;;;;;;5052467;28;20055;-57
2021/06/12 03:36:14;;;;;;;1.38;1.27;;;24.50;58.40;;;;;;5044963;28;20496;-55
2021/06/12 03:38:42;;;;;;;1.55;1.45;;;24.50;58.40;;;;;;5043074;28;20056;-56
2021/06/12 03:41:10;;;;;;;1.52;1.42;;;24.50;58.40;;;;;;5044955;28;20191;-57
2021/06/12 03:43:38;;;;;;;1.85;1.50;;;24.50;58.40;;;;;;5042369;28;20045;-53
2021/06/12 03:46:07;;;;;;;1.40;1.17;;;24.50;58.30;;;;;;5047589;28;20052;-55
2021/06/12 03:48:38;;;;;;;1.38;1.27;;;24.50;58.30;;;;;;5037259;28;20068;-56
2021/06/12 03:51:08;;;;;;;1.40;1.30;;;24.50;58.30;;;;;;5040451;28;20044;-52
2021/06/12 03:53:43;;;;;;;1.60;1.50;;;24.50;58.30;;;;;;5052972;28;20563;-55
2021/06/12 03:56:20;;;;;;;1.52;1.42;;;24.50;58.30;;;;;;5051045;28;20037;-56
2021/06/12 03:58:50;;;;;;;1.83;1.70;;;24.60;58.30;;;;;;5052914;28;20505;-55
2021/06/12 04:01:19;;;;;;;1.75;1.30;;;24.50;58.20;;;;;;5052438;28;20110;-51
2021/06/12 04:03:47;;;;;;;1.58;1.48;;;24.50;58.20;;;;;;5051973;28;20520;-57
2021/06/12 04:06:14;;;;;;;1.73;1.63;;;24.60;58.20;;;;;;5049992;28;20049;-53
2021/06/12 04:08:42;;;;;;;1.40;1.30;;;24.60;58.20;;;;;;5044959;28;20116;-52
2021/06/12 04:11:10;;;;;;;1.27;1.20;;;24.60;58.20;;;;;;5051623;28;20132;-57
2021/06/12 04:13:37;;;;;;;1.63;1.52;;;24.60;58.10;;;;;;5051867;28;20517;-55
2021/06/12 04:16:05;;;;;;;1.50;1.40;;;24.60;58.00;;;;;;5057170;28;20124;-58
2021/06/12 04:18:33;;;;;;;2.05;1.60;;;24.60;58.00;;;;;;5058664;28;20049;-56
2021/06/12 04:21:01;;;;;;;1.40;1.30;;;24.70;58.00;;;;;;5041629;28;20436;-57
2021/06/12 04:23:29;;;;;;;1.33;1.23;;;24.70;58.00;;;;;;5058653;28;20053;-54
2021/06/12 04:25:56;;;;;;;1.40;1.30;;;24.70;57.90;;;;;;5041983;28;20057;-56
2021/06/12 04:28:24;;;;;;;1.70;1.40;;;24.70;57.80;;;;;;5058019;28;20099;-56
2021/06/12 04:30:52;;;;;;;1.50;1.40;;;24.70;57.80;;;;;;5058723;28;20077;-57
2021/06/12 04:33:20;;;;;;;1.48;1.38;;;24.80;57.80;;;;;;5070806;28;20450;-55
2021/06/12 04:35:47;;;;;;;1.40;1.30;;;24.80;57.70;;;;;;5050179;28;20132;-56
2021/06/12 04:38:15;;;;;;;1.40;1.30;;;24.80;57.60;;;;;;5053384;28;20045;-55
2021/06/12 04:40:44;;;;;;;1.48;1.38;;;24.90;57.60;;;;;;5049240;28;20056;-52
2021/06/12 04:43:12;;;;;;;1.25;1.15;;;24.90;57.60;;;;;;5053025;28;20045;-58
2021/06/12 04:45:40;;;;;;;1.30;1.20;;;24.90;57.50;;;;;;5059465;28;20044;-55
2021/06/12 04:48:09;;;;;;;1.40;1.30;;;25.00;57.50;;;;;;5050072;28;20049;-55
2021/06/12 04:50:38;;;;;;;1.40;1.30;;;24.90;57.30;;;;;;5049638;28;20099;-52
2021/06/12 04:53:08;;;;;;;1.20;1.10;;;24.90;57.30;;;;;;5059629;28;20076;-55
2021/06/12 04:55:36;;;;;;;1.60;1.42;;;25.00;57.40;;;;;;5056875;28;20049;-52
2021/06/12 04:58:04;;;;;;;1.50;1.40;;;24.90;57.30;;;;;;5058110;28;20052;-54
2021/06/12 05:00:31;;;;;;;1.50;1.40;;;24.90;57.30;;;;;;5058458;28;20412;-52
2021/06/12 05:02:59;;;;;;;1.45;1.35;;;25.00;57.30;;;;;;5073658;28;20061;-51
2021/06/12 05:05:27;;;;;;;1.40;1.30;;;24.90;57.20;;;;;;5058533;28;20056;-53
2021/06/12 05:07:54;;;;;;;1.38;1.27;;;24.90;57.20;;;;;;5045333;28;20056;-50
2021/06/12 05:10:24;;;;;;;1.33;1.23;;;24.90;57.20;;;;;;5058458;28;20045;-55
2021/06/12 05:12:52;;;;;;;1.50;1.40;;;25.00;57.30;;;;;;5074114;28;20040;-55
2021/06/12 05:15:26;;;;;;;1.40;1.30;;;24.90;57.20;;;;;;5059496;28;20040;-57
2021/06/12 05:17:54;;;;;;;1.40;1.30;;;25.00;57.30;;;;;;5041340;28;20041;-54
2021/06/12 05:20:21;;;;;;;1.42;1.33;;;25.00;57.30;;;;;;5058198;28;20294;-56
2021/06/12 05:22:50;;;;;;;1.40;1.30;;;24.90;57.20;;;;;;5057437;28;20056;-55
2021/06/12 05:25:18;;;;;;;1.30;1.20;;;24.90;57.20;;;;;;5058056;28;20485;-55
2021/06/12 05:27:45;;;;;;;1.63;1.52;;;25.00;57.40;;;;;;5036378;28;20049;-52
2021/06/12 05:30:13;;;;;;;1.50;1.40;;;24.90;57.30;;;;;;5068987;28;20060;-56
2021/06/12 05:32:41;;;;;;;1.52;1.23;;;24.90;57.40;;;;;;5040303;28;20108;-56
2021/06/12 05:35:09;;;;;;;1.55;1.45;;;24.90;57.40;;;;;;5037234;28;20053;-52
2021/06/12 05:37:40;;;;;;;1.50;1.40;;;24.90;57.40;;;;;;5038954;28;20045;-56
2021/06/12 05:40:10;;;;;;;1.30;1.20;;;24.90;57.40;;;;;;5052972;28;20390;-56
2021/06/12 05:42:38;;;;;;;1.40;1.30;;;24.90;57.40;;;;;;5055649;28;20513;-56
2021/06/12 05:45:09;;;;;;;1.40;1.30;;;24.90;57.40;;;;;;5055471;28;20489;-56
2021/06/12 05:47:37;;;;;;;1.60;1.50;;;24.90;57.40;;;;;;5055610;28;20075;-55
2021/06/12 05:50:05;;;;;;;1.60;1.50;;;24.90;57.50;;;;;;5065641;28;20045;-53
2021/06/12 05:52:33;;;;;;;1.50;1.40;;;24.90;57.40;;;;;;5050182;28;20045;-54
2021/06/12 05:55:00;;;;;;;1.40;1.30;;;24.90;57.40;;;;;;5047055;28;20049;-57
2021/06/12 05:57:28;;;;;;;1.35;1.25;;;24.90;57.40;;;;;;5063046;28;20068;-56
2021/06/12 05:59:55;;;;;;;1.33;1.23;;;24.90;57.40;;;;;;5063178;28;20083;-53
2021/06/12 06:02:23;;;;;;;1.20;1.10;;;24.90;57.30;;;;;;5054507;28;20464;-56
2021/06/12 06:04:50;;;;;;;1.40;1.30;;;24.90;57.30;;;;;;5054210;28;20090;-56
2021/06/12 06:07:18;;;;;;;1.73;1.42;;;25.00;57.30;;;;;;5046997;28;20045;-57
2021/06/12 06:09:45;;;;;;;1.48;1.38;;;25.00;57.30;;;;;;5050042;28;20489;-55
2021/06/12 06:12:12;;;;;;;1.40;1.30;;;25.00;57.20;;;;;;5041032;28;20060;-55
2021/06/12 06:14:40;;;;;;;1.48;1.38;;;25.00;57.20;;;;;;5053892;28;20511;-56
2021/06/12 06:17:07;;;;;;;1.33;1.23;;;25.00;57.20;;;;;;5055339;28;20102;-55
2021/06/12 06:19:35;;;;;;;1.50;1.40;;;25.00;57.20;;;;;;5053842;28;20053;-54
2021/06/12 06:22:03;;;;;;;1.30;1.20;;;25.00;57.30;;;;;;5053893;28;20080;-57
2021/06/12 06:24:30;;;;;;;1.35;1.25;;;25.00;57.30;;;;;;5036453;28;20107;-55
2021/06/12 06:26:58;;;;;;;1.40;1.30;;;25.00;57.20;;;;;;5034465;28;20076;-55
2021/06/12 06:29:26;;;;;;;1.50;1.40;;;25.00;57.20;;;;;;5035498;28;20504;-56
2021/06/12 06:31:53;;;;;;;1.30;1.20;;;25.00;57.20;;;;;;5053901;28;20049;-56
2021/06/12 06:34:21;;;;;;;1.38;1.27;;;25.00;57.20;;;;;;5053668;28;20095;-56
2021/06/12 06:36:48;;;;;;;1.50;1.40;;;25.00;57.20;;;;;;5053766;28;20045;-56
2021/06/12 06:39:16;;;;;;;1.40;1.30;;;25.00;57.70;;;;;;5038648;28;20096;-57
2021/06/12 06:41:44;;;;;;;1.50;1.40;;;25.10;57.20;;;;;;5051741;28;20073;-55
2021/06/12 06:44:11;;;;;;;1.73;1.58;;;25.10;57.10;;;;;;5053396;28;20049;-57
2021/06/12 06:46:38;;;;;;;1.27;1.17;;;25.10;57.20;;;;;;5052175;28;20128;-51
2021/06/12 06:49:06;;;;;;;1.50;1.40;;;25.10;57.10;;;;;;5044402;28;20048;-56
2021/06/12 06:51:34;;;;;;;1.20;1.10;;;25.10;57.10;;;;;;5046950;28;20124;-55
2021/06/12 06:54:01;;;;;;;1.40;1.30;;;25.10;57.10;;;;;;5043823;28;20085;-52
2021/06/12 06:56:29;;;;;;;1.50;1.38;;;25.00;57.00;;;;;;5045048;28;20505;-55
2021/06/12 06:58:56;;;;;;;1.30;1.20;;;25.10;57.10;;;;;;5052954;28;20489;-52
2021/06/12 07:01:23;;;;;;;1.38;1.27;;;25.00;57.10;;;;;;5051876;28;20489;-54
2021/06/12 07:03:51;;;;;;;1.65;1.55;;;25.00;57.10;;;;;;5053897;28;20044;-55
2021/06/12 07:06:19;;;;;;;1.55;1.33;;;25.00;57.10;;;;;;5052595;28;20049;-53
2021/06/12 07:08:46;;;;;;;1.42;1.20;;;25.10;57.20;;;;;;5048871;28;20075;-55
2021/06/12 07:11:14;;;;;;;1.20;1.10;;;25.10;57.20;;;;;;5036447;28;20124;-57
2021/06/12 07:13:42;;;;;;;1.50;1.40;;;25.00;57.70;;;;;;5036433;28;20041;-57
2021/06/12 07:16:10;;;;;;;1.30;1.20;;;25.00;57.10;;;;;;5037704;28;20048;-56
2021/06/12 07:18:38;;;;;;;1.20;1.10;;;25.10;57.10;;;;;;5052641;28;20049;-57
2021/06/12 07:21:06;;;;;;;1.60;1.40;;;25.10;57.10;;;;;;5052798;28;20041;-52
2021/06/12 07:23:34;;;;;;;1.55;1.45;;;25.10;57.00;;;;;;5036285;28;20145;-56
2021/06/12 07:26:03;;;;;;;1.60;1.50;;;25.20;57.00;;;;;;5052224;28;20501;-55
2021/06/12 07:28:31;;;;;;;1.42;1.33;;;25.20;57.00;;;;;;5035676;28;20053;-51
2021/06/12 07:30:59;;;;;;;1.50;1.40;;;25.30;56.80;;;;;;5036315;28;20073;-58
2021/06/12 07:33:27;;;;;;;1.58;1.48;;;25.30;56.70;;;;;;5053567;28;20166;-55
2021/06/12 07:35:54;;;;;;;1.30;1.20;;;25.40;56.60;;;;;;5052401;28;20130;-55
2021/06/12 07:38:23;;;;;;;1.23;1.10;;;25.50;56.40;;;;;;5066747;28;20127;-56
2021/06/12 07:40:51;;;;;;;1.23;1.13;;;25.50;56.20;;;;;;5041064;28;20049;-54
2021/06/12 07:43:19;;;;;;;1.60;1.30;;;25.60;56.10;;;;;;5049450;28;20473;-57
2021/06/12 07:45:48;;;;;;;1.40;1.30;;;25.60;56.10;;;;;;5053401;28;20049;-56
2021/06/12 07:48:16;;;;;;;1.30;1.20;;;25.70;56.00;;;;;;5053430;28;20049;-53
2021/06/12 07:50:44;;;;;;;1.33;1.20;;;25.70;55.80;;;;;;5040262;28;20042;-55
2021/06/12 07:53:12;;;;;;;1.40;1.30;;;25.70;55.70;;;;;;5046120;28;20515;-54
2021/06/12 07:55:39;;;;;;;1.40;1.30;;;25.70;55.60;;;;;;5042620;28;20057;-57
2021/06/12 07:58:07;;;;;;;1.35;1.25;;;25.80;55.70;;;;;;5035851;28;20094;-53
2021/06/12 08:00:34;;;;;;;1.33;1.23;;;25.70;55.60;;;;;;5043771;28;20052;-53
2021/06/12 08:03:03;;;;;;;1.13;1.02;;;25.70;55.60;;;;;;5045056;28;20045;-53
2021/06/12 08:05:31;;;;;;;1.25;1.15;;;25.70;55.60;;;;;;5035491;28;20053;-56
2021/06/12 08:07:58;;;;;;;1.30;1.20;;;25.80;55.60;;;;;;5040746;28;20056;-54
2021/06/12 08:10:27;;;;;;;1.35;1.25;;;25.80;55.50;;;;;;5051982;28;20056;-53
2021/06/12 08:12:54;;;;;;;1.40;1.30;;;25.90;55.50;;;;;;5048506;28;20068;-55
2021/06/12 08:15:23;;;;;;;1.20;1.10;;;25.90;55.40;;;;;;5038171;28;20048;-54
2021/06/12 08:17:51;;;;;;;1.30;1.20;;;26.00;55.30;;;;;;5052253;28;20451;-52
2021/06/12 08:20:20;;;;;;;2.15;1.38;;;26.00;55.20;;;;;;5052927;28;20045;-56
2021/06/12 08:22:47;;;;;;;1.23;1.13;;;26.00;55.00;;;;;;5053192;28;20436;-56
2021/06/12 08:25:15;;;;;;;1.33;1.23;;;26.00;55.00;;;;;;5052549;28;20124;-56
2021/06/12 08:27:43;;;;;;;1.83;1.33;;;26.00;54.90;;;;;;5035639;28;20484;-55
2021/06/12 08:30:11;;;;;;;1.42;1.33;;;26.10;54.80;;;;;;5050946;28;20505;-56
2021/06/12 08:32:39;;;;;;;1.40;1.30;;;26.10;54.80;;;;;;5051078;28;20559;-54
2021/06/12 08:35:10;;;;;;;1.30;1.20;;;26.20;54.70;;;;;;5053346;28;20511;-55
2021/06/12 08:37:37;;;;;;;1.20;1.10;;;26.20;54.70;;;;;;5049890;28;20053;-57
2021/06/12 08:40:05;;;;;;;1.30;1.20;;;26.20;54.50;;;;;;5052473;28;20045;-54
2021/06/12 08:42:33;;;;;;;1.33;1.23;;;26.20;54.50;;;;;;5052614;28;20080;-55
2021/06/12 08:45:03;;;;;;;1.27;1.17;;;26.30;54.40;;;;;;5037079;28;20060;-56
2021/06/12 08:47:35;;;;;;;1.40;1.30;;;26.30;54.40;;;;;;5047756;28;20129;-52
2021/06/12 08:50:06;;;;;;;1.30;1.20;;;26.30;54.30;;;;;;5051588;28;20130;-56
2021/06/12 08:52:36;;;;;;;1.30;1.20;;;26.30;54.20;;;;;;5051503;28;20127;-55
2021/06/12 08:55:06;;;;;;;2.10;1.30;;;26.30;54.20;;;;;;5051387;28;20056;-54
2021/06/12 08:57:34;;;;;;;1.33;1.23;;;26.30;54.10;;;;;;5039748;28;20145;-57
2021/06/12 09:00:02;;;;;;;1.45;1.35;;;26.30;54.10;;;;;;5034924;28;20053;-53
2021/06/12 09:03:29;;;;;;;1.27;1.10;;;26.30;54.10;;;;;;5049356;28;20575;-53
2021/06/12 09:05:59;;;;;;;1.27;1.05;;;26.40;54.10;;;;;;4971148;28;20051;-57
2021/06/12 09:08:28;;;;;;;1.27;1.17;;;26.30;54.10;;;;;;4973907;28;20058;-54
2021/06/12 09:11:08;;;;;;;1.40;1.10;;;26.30;54.10;;;;;;4974038;28;20053;-53
2021/06/12 09:13:42;;;;;;;1.48;1.38;;;26.20;54.10;;;;;;4974541;28;20110;-54
2021/06/12 09:16:27;;;;;;;;;;;26.30;54.30;;;;;;4975950;28;20090;-55
2021/06/12 09:19:15;;;;;;;1.48;1.38;;;26.30;54.30;;;;;;4959291;28;19929;-55
2021/06/12 09:21:57;;;;;;;1.10;1.00;;;26.20;54.30;;;;;;4974591;28;20499;-55
2021/06/12 09:24:39;;;;;;;1.40;1.13;;;26.20;55.00;;;;;;4990460;28;20097;-56
2021/06/12 09:27:13;;;;;;;1.25;1.15;;;26.20;54.40;;;;;;4974001;28;20173;-57
2021/06/12 09:29:49;;;;;;;1.30;1.20;;;26.20;54.50;;;;;;4974739;28;20141;-55
2021/06/12 09:32:25;;;;;;;1.50;1.40;;;26.20;54.50;;;;;;4973765;28;20050;-54
2021/06/12 09:35:11;;;;;;;1.38;1.27;;;26.20;54.50;;;;;;4973834;28;20154;-55
2021/06/12 09:37:40;;;;;;;1.70;1.60;;;26.20;54.50;;;;;;5035943;28;20045;-53
2021/06/12 09:40:11;;;;;;;1.60;1.50;;;26.20;54.50;;;;;;5051365;28;20132;-56
2021/06/12 09:42:50;;;;;;;1.30;1.20;;;26.20;54.50;;;;;;5040932;28;20497;-56
2021/06/12 09:45:32;;;;;;;2.13;1.27;;;26.20;54.50;;;;;;5054454;28;20103;-55
2021/06/12 09:48:16;;;;;;;1.30;1.20;;;26.20;54.30;;;;;;5054308;28;20132;-53
2021/06/12 09:50:44;;;;;;;;;;;26.20;54.30;;;;;;5054785;28;20045;-57
2021/06/12 09:53:18;;;;;;;1.33;1.23;;;26.20;54.30;;;;;;5054199;28;19924;-57
2021/06/12 09:55:46;;;;;;;1.50;1.40;;;26.20;54.30;;;;;;5055346;28;20045;-55
2021/06/12 09:58:14;;;;;;;1.38;1.27;;;26.20;55.00;;;;;;5055421;28;20041;-56
2021/06/12 10:00:47;;;;;;;1.23;1.13;;;26.30;54.40;;;;;;5066370;28;20041;-55
2021/06/12 10:03:28;;;;;;;1.20;1.10;;;26.30;54.40;;;;;;5042212;28;20416;-56
2021/06/12 10:06:20;;;;;;;1.33;1.20;;;26.30;54.30;;;;;;5053015;28;20099;-56
2021/06/12 10:08:50;;;;;;;1.50;1.40;;;26.30;54.10;;;;;;5056607;28;20053;-52
2021/06/12 10:11:22;;;;;;;1.42;1.33;;;26.40;54.10;;;;;;5048568;28;20045;-55
2021/06/12 10:13:51;;;;;;;1.27;1.00;;;26.40;54.10;;;;;;5042885;28;20059;-55
2021/06/12 10:16:25;;;;;;;2.92;1.30;;;26.40;54.10;;;;;;5052762;28;20047;-57
2021/06/12 10:18:55;;;;;;;1.25;1.15;;;26.40;54.10;;;;;;5052759;28;20552;-53
2021/06/12 10:21:23;;;;;;;1.40;1.30;;;26.30;54.10;;;;;;5053799;28;20053;-54
2021/06/12 10:23:51;;;;;;;1.63;1.30;;;26.30;54.20;;;;;;5053640;28;20041;-55
2021/06/12 10:26:21;;;;;;;1.20;1.10;;;26.30;54.20;;;;;;5051772;28;20103;-55
2021/06/12 10:28:49;;;;;;;1.45;1.35;;;26.30;54.40;;;;;;5039702;28;20044;-56
2021/06/12 10:31:23;;;;;;;1.23;1.13;;;26.20;54.30;;;;;;5054551;28;20053;-54
2021/06/12 10:33:53;;;;;;;1.88;1.33;;;26.30;54.40;;;;;;5053436;28;20053;-56
2021/06/12 10:36:26;;;;;;;1.35;1.25;;;26.30;54.40;;;;;;5053731;28;20453;-55
2021/06/12 10:38:56;;;;;;;1.77;1.35;;;26.30;54.40;;;;;;5052513;28;20041;-55
2021/06/12 10:41:34;;;;;;;1.40;1.30;;;26.20;54.40;;;;;;5037006;28;20057;-57
2021/06/12 10:44:04;;;;;;;1.52;1.42;;;26.20;54.50;;;;;;5036916;28;20058;-55
2021/06/12 10:46:34;;;;;;;1.40;1.30;;;26.20;54.50;;;;;;5037434;28;20056;-52
2021/06/12 10:49:05;;;;;;;1.40;1.30;;;26.20;54.50;;;;;;5053353;28;20048;-56
2021/06/12 10:51:34;;;;;;;1.63;1.52;;;26.20;54.60;;;;;;5036553;28;20045;-53
2021/06/12 10:54:08;;;;;;;1.40;1.30;;;26.20;54.60;;;;;;5036205;28;20102;-54
2021/06/12 10:56:43;;;;;;;1.40;1.30;;;26.10;54.60;;;;;;5053579;28;20107;-51
2021/06/12 10:59:14;;;;;;;1.58;1.48;;;26.20;54.70;;;;;;5035713;28;20049;-54
2021/06/12 11:02:07;;;;;;;1.40;1.23;;;26.20;54.70;;;;;;5036748;28;20128;-54
2021/06/12 11:04:59;;;;;;;1.38;1.27;;;26.10;54.70;;;;;;5037718;28;20120;-56
2021/06/12 11:07:34;;;;;;;1.58;1.23;;;26.10;54.70;;;;;;5048764;28;20056;-56
2021/06/12 11:10:14;;;;;;;1.30;1.20;;;26.20;54.80;;;;;;5053888;28;20118;-55
2021/06/12 11:12:43;;;;;;;1.30;1.17;;;26.20;54.80;;;;;;5052887;28;20045;-59
2021/06/12 11:15:22;;;;;;;1.45;1.35;;;26.20;54.80;;;;;;5049890;28;20099;-56
2021/06/12 11:18:21;;;;;;;1.60;1.48;;;26.20;54.80;;;;;;5042437;28;20497;-55
2021/06/12 11:21:05;;;;;;;1.20;1.10;;;26.20;54.70;;;;;;5053851;28;20055;-50
2021/06/12 11:24:02;;;;;;;1.33;1.23;;;26.20;54.70;;;;;;5052273;28;20128;-55
2021/06/12 11:26:56;;;;;;;1.55;1.33;;;26.20;54.60;;;;;;5040219;28;20551;-54
2021/06/12 11:29:24;;;;;;;1.40;1.30;;;26.20;54.50;;;;;;5051439;28;20053;-54
2021/06/12 11:31:51;;;;;;;1.60;1.50;;;26.20;54.50;;;;;;5051632;28;20380;-55
2021/06/12 11:34:25;;;;;;;1.30;1.20;;;26.20;54.50;;;;;;5039932;28;20054;-56
2021/06/12 11:37:15;;;;;;;1.70;1.60;;;26.20;54.50;;;;;;5050761;28;20081;-55
2021/06/12 11:39:54;;;;;;;1.33;1.23;;;26.30;54.50;;;;;;5052372;28;20463;-56
2021/06/12 11:42:43;;;;;;;1.40;1.30;;;26.30;54.50;;;;;;5052604;28;20087;-54
2021/06/12 11:45:24;;;;;;;1.17;1.08;;;26.30;54.40;;;;;;5034506;28;20128;-56
2021/06/12 11:47:54;;;;;;;2.45;1.50;;;26.30;54.40;;;;;;5035301;28;20045;-54
2021/06/12 11:50:30;;;;;;;1.65;1.55;;;26.30;55.00;;;;;;5036360;28;20128;-53
2021/06/12 11:52:59;;;;;;;1.40;1.27;;;26.30;54.40;;;;;;5052246;28;20124;-56
2021/06/12 11:55:29;;;;;;;1.50;1.30;;;26.30;54.40;;;;;;5052534;28;20463;-55
2021/06/12 11:57:57;;;;;;;1.67;1.58;;;26.30;54.30;;;;;;5052019;28;20044;-52
2021/06/12 12:00:29;;;;;;;1.38;1.27;;;26.30;54.30;;;;;;5036644;28;20468;-55
2021/06/12 12:03:12;;;;;;;1.40;1.30;;;26.40;54.30;;;;;;5051278;28;20493;-56
2021/06/12 12:05:41;;;;;;;2.15;1.50;;;26.40;54.30;;;;;;5050031;28;20385;-56
2021/06/12 12:08:12;;;;;;;1.38;1.27;;;26.40;54.30;;;;;;5052128;28;20124;-55
2021/06/12 12:10:42;;;;;;;1.45;1.35;;;26.30;54.20;;;;;;5052460;28;20045;-52
2021/06/12 12:13:35;;;;;;;1.42;1.33;;;26.40;54.30;;;;;;5051885;28;20469;-53
2021/06/12 12:16:17;;;;;;;1.10;1.00;;;26.40;54.20;;;;;;5051182;28;20084;-54
2021/06/12 12:18:50;;;;;;;1.50;1.40;;;26.40;54.20;;;;;;5034697;28;20052;-56
2021/06/12 12:21:29;;;;;;;1.40;1.30;;;26.40;54.30;;;;;;5034062;28;20053;-53
2021/06/12 12:23:57;;;;;;;1.60;1.50;;;26.40;54.20;;;;;;5035007;28;20099;-54
2021/06/12 12:26:26;;;;;;;1.65;1.50;;;26.40;54.20;;;;;;5052296;28;20447;-57
2021/06/12 12:29:08;;;;;;;1.77;1.50;;;26.50;54.20;;;;;;5050905;28;20132;-54
2021/06/12 12:31:42;;;;;;;1.55;1.45;;;26.50;54.10;;;;;;5034516;28;20042;-54
2021/06/12 12:34:10;;;;;;;1.63;1.50;;;26.50;54.10;;;;;;5034562;28;20124;-54
2021/06/12 12:36:47;;;;;;;1.50;1.40;;;26.50;54.00;;;;;;5036741;28;20045;-55
2021/06/12 12:39:15;;;;;;;1.45;1.35;;;26.60;53.90;;;;;;5055819;28;20049;-55
2021/06/12 12:41:57;;;;;;;1.48;1.38;;;26.60;53.90;;;;;;5055913;28;20052;-54
2021/06/12 12:44:28;;;;;;;1.50;1.40;;;26.60;53.80;;;;;;5038455;28;20053;-54
2021/06/12 12:46:55;;;;;;;1.50;1.40;;;26.60;53.80;;;;;;5055831;28;20394;-56
2021/06/12 12:49:31;;;;;;;1.40;1.30;;;26.50;53.90;;;;;;5039972;28;20049;-55
2021/06/12 12:52:03;;;;;;;1.50;1.40;;;26.50;54.00;;;;;;5054622;28;20124;-55
2021/06/12 12:54:35;;;;;;;1.52;1.42;;;26.40;54.10;;;;;;5037748;28;20068;-56
2021/06/12 12:57:09;;;;;;;1.60;1.50;;;26.40;54.20;;;;;;5055120;28;20098;-56
2021/06/12 12:59:44;;;;;;;1.58;1.48;;;26.30;54.20;;;;;;5056317;28;20052;-56
2021/06/12 13:02:11;;;;;;;1.70;1.60;;;26.30;54.40;;;;;;5054045;28;20060;-54
2021/06/12 13:04:44;;;;;;;1.30;1.20;;;26.30;54.40;;;;;;5055505;28;20131;-57
2021/06/12 13:07:13;;;;;;;1.50;1.40;;;26.30;54.40;;;;;;5042311;28;20413;-54
2021/06/12 13:09:45;;;;;;;1.60;1.50;;;26.30;55.00;;;;;;5053703;28;20081;-54